PHMK

Molokai Airport

Kaunakakai, Hawaii, USA
PHMK 260538Z 2606/2706 04010G16KT P6SM FEW020 FM262000 04013G20KT P6SM FEW020 SCT035 FM262300 04014G23KT P6SM VCSH SCT020 BKN035 FM270500 05008KT P6SM FEW020 SCT035
Issued Valid From Valid To
Apr-26 @ 05:38 UTC
(15 minutes ago)
Apr-26 @ 06:00 UTC
(in 7 minutes)
Apr-27 @ 06:00 UTC
(in 24 hours)
Apr-26 @ 06:00 to Apr-26 @ 20:00
PHMK 260538Z 2606/2706 04010G16KT P6SM FEW020
Wind Visibility Clouds
40° at 10 knots
 Gusting to 16 knots
Greater than 6 miles
  • Few at 2,000' AGL
From Apr-26 @ 20:00 to Apr-26 @ 23:00
FM262000 04013G20KT P6SM FEW020 SCT035
Wind Visibility Clouds
40° at 13 knots
 Gusting to 20 knots
Greater than 6 miles
  • Few at 2,000' AGL
  • Scattered at 3,500' AGL
From Apr-26 @ 23:00 to Apr-27 @ 05:00
FM262300 04014G23KT P6SM VCSH SCT020 BKN035
Wind Visibility Clouds
40° at 14 knots
 Gusting to 23 knots
Greater than 6 miles
  • Scattered at 2,000' AGL
  • Broken at 3,500' AGL
From Apr-27 @ 05:00 to Apr-27 @ 06:00
FM270500 05008KT P6SM FEW020 SCT035
Wind Visibility Clouds
50° at 8 knots Greater than 6 miles
  • Few at 2,000' AGL
  • Scattered at 3,500' AGL
PHMK 260538Z 2606/2706 04010G16KT P6SM FEW020 FM262000 04013G20KT P6SM FEW020 SCT035 FM262300 04014G23KT P6SM VCSH SCT020 BKN035 FM270500 05008KT P6SM FEW020 SCT035
Issued Apr-26 @ 05:38 UTC
(15 minutes ago)
Valid From Apr-26 @ 06:00 UTC
(in 7 minutes)
Valid To Apr-27 @ 06:00 UTC
(in 24 hours)
Apr-26 @ 06:00 - Apr-26 @ 20:00
Wind Visibility
40° at 10 knots
 Gusting to 16 knots
Greater than 6 miles
Clouds
  • Few at 2,000' AGL
From Apr-26 @ 20:00 - Apr-26 @ 23:00
Wind Visibility
40° at 13 knots
 Gusting to 20 knots
Greater than 6 miles
Clouds
  • Few at 2,000' AGL
  • Scattered at 3,500' AGL
From Apr-26 @ 23:00 - Apr-27 @ 05:00
Wind Visibility
40° at 14 knots
 Gusting to 23 knots
Greater than 6 miles
Clouds
  • Scattered at 2,000' AGL
  • Broken at 3,500' AGL
From Apr-27 @ 05:00 - Apr-27 @ 06:00
Wind Visibility
50° at 8 knots Greater than 6 miles
Clouds
  • Few at 2,000' AGL
  • Scattered at 3,500' AGL